Buoy 62910

sailwx.info

Track history (hours):
 
Tides and Currents Weather Stations Pressure Air Temp Water Temp Dewpoint Dewpoint Depression Visibility Wind Speed Wind Dir Waves Ship Positions

Drifting buoy 62910

Last reported at 2014-Oct-24 15:06 UTC. Time now 2014-Oct-24 16:56 UTC.
Position N 40°42' E 003°53'.

Water temperature 22.7 ° C

Date/timePositionNaut miles runAvg speedWind from/ knotsBaromVisibWave heightAir tempDewpointWater temp
2014-Oct-24 15:06N 40°42' E 003°53'1 3.8 22.7
2014-Oct-24 14:49N 40°42' E 003°53'0 2.2
2014-Oct-24 14:45N 40°42' E 003°53'1 0.4 22.7
2014-Oct-24 13:04N 40°43' E 003°54'0 3.3 22.7
2014-Oct-24 12:57N 40°43' E 003°55'1 1.0 22.7
2014-Oct-24 11:43N 40°44' E 003°54'0 0.0 22.7
2014-Oct-24 11:22N 40°44' E 003°54'1 6.0 22.7
2014-Oct-24 11:17N 40°44' E 003°54'0 0.0 22.7
2014-Oct-24 10:52N 40°44' E 003°54'0 0.1 22.7
2014-Oct-24 10:08N 40°44' E 003°54'0 0.0 22.6
2014-Oct-24 10:01N 40°44' E 003°54'2 2.0
2014-Oct-24 09:15N 40°44' E 003°52'0 0.0 22.6
2014-Oct-24 08:24N 40°44' E 003°52'0 0.2 22.6
2014-Oct-24 06:07N 40°43' E 003°53'2 2.1 22.6
2014-Oct-24 05:14N 40°42' E 003°52'0 0.0 22.6
2014-Oct-24 05:06N 40°42' E 003°52'0 0.0 22.6
2014-Oct-24 04:52N 40°42' E 003°52'0 0.0 22.6
2014-Oct-24 04:25N 40°42' E 003°52'1 0.6 22.6
2014-Oct-24 03:34N 40°42' E 003°51'2 4.9 22.6
2014-Oct-24 03:14N 40°41' E 003°53'0 0.0 22.6
2014-Oct-24 03:09N 40°41' E 003°53'0 0.0
2014-Oct-24 01:37N 40°41' E 003°53'0 0.0 22.6
2014-Oct-24 01:34N 40°41' E 003°53'2 0.8 22.6
2014-Oct-23 22:41N 40°38' E 003°54'219.1 22.6
2014-Oct-23 22:35N 40°38' E 003°56'0 0.0 22.6
2014-Oct-23 21:48N 40°38' E 003°56'0 0.0 22.6
2014-Oct-23 20:58N 40°38' E 003°56'0 0.9 22.6
2014-Oct-23 20:53N 40°38' E 003°56'0 0.0 22.6
2014-Oct-23 20:26N 40°38' E 003°56'1 6.3 22.6
2014-Oct-23 20:12N 40°39' E 003°58'0 0.0 22.6
2014-Oct-23 20:03N 40°39' E 003°58'0 0.0 22.6
2014-Oct-23 19:16N 40°39' E 003°58'0 0.0 22.6
2014-Oct-23 19:12N 40°39' E 003°58'0 0.1 22.6
2014-Oct-23 18:46N 40°39' E 003°58'1 3.6 22.6
2014-Oct-23 18:31N 40°39' E 003°58'0 0.0 22.6
2014-Oct-23 17:10N 40°39' E 003°58'2 7.4 22.6
2014-Oct-23 16:54N 40°41' E 003°57'0 0.2 22.6
2014-Oct-23 15:15N 40°41' E 003°57'2 6.7 22.6
2014-Oct-23 14:54N 40°39' E 003°55'0 0.0 22.6
2014-Oct-23 13:31N 40°39' E 003°55'0 0.0 22.6
2014-Oct-23 13:15N 40°39' E 003°55'0 0.0 22.6
2014-Oct-23 11:29N 40°39' E 003°55'3 9.9 22.6
2014-Oct-23 11:13N 40°37' E 003°55'0 0.0 22.6
2014-Oct-23 10:29N 40°37' E 003°55'0 0.0 22.6
2014-Oct-23 09:36N 40°37' E 003°55'0 0.0 22.6
2014-Oct-23 09:33N 40°37' E 003°55'1 1.2 22.6
2014-Oct-23 08:43N 40°36' E 003°56'0 0.0 22.6
2014-Oct-23 07:52N 40°36' E 003°56'0 0.0 22.6
2014-Oct-23 07:04N 40°36' E 003°56'0 0.0 22.6
2014-Oct-23 06:38N 40°36' E 003°56'1 1.1 22.6
2014-Oct-23 05:32N 40°35' E 003°56'0 6.8 22.6
2014-Oct-23 05:29N 40°35' E 003°56'1 1.3 22.6
2014-Oct-23 04:59N 40°35' E 003°55'2 1.6 22.6
2014-Oct-23 03:52N 40°35' E 003°58'0 1.1
2014-Oct-23 03:48N 40°35' E 003°58'0 1.2 22.6
2014-Oct-23 03:27N 40°35' E 003°58'2 0.9 22.6
2014-Oct-23 01:48N 40°34' E 004°00'318.8 22.6
2014-Oct-23 01:39N 40°37' E 004°03'0 0.0 22.6
2014-Oct-22 22:57N 40°37' E 004°03'0 0.0 22.6
2014-Oct-22 22:09N 40°37' E 004°03'0 0.0 22.6
2014-Oct-22 22:05N 40°37' E 004°03'0 0.0 22.6
2014-Oct-22 21:18N 40°37' E 004°03'1 7.7 22.6
2014-Oct-22 21:14N 40°37' E 004°02'0 0.0 22.6
2014-Oct-22 20:28N 40°37' E 004°02'0 0.0 22.7
2014-Oct-22 20:23N 40°37' E 004°02'0 0.0 22.7
2014-Oct-22 19:37N 40°37' E 004°02'0 5.7 22.7
2014-Oct-22 19:32N 40°37' E 004°02'0 0.0 22.7
2014-Oct-22 19:19N 40°37' E 004°02'3 2.0 22.7
2014-Oct-22 17:40N 40°34' E 004°02'0 0.0 22.7
2014-Oct-22 17:23N 40°34' E 004°02'0 0.0 22.7
2014-Oct-22 17:09N 40°34' E 004°02'0 0.0 22.7
2014-Oct-22 15:38N 40°34' E 004°02'0 0.0 22.8
2014-Oct-22 15:30N 40°34' E 004°02'0 4.0 22.8
2014-Oct-22 15:23N 40°34' E 004°03'0 0.0 22.8
2014-Oct-22 15:05N 40°34' E 004°03'2 1.4 22.8
2014-Oct-22 13:47N 40°33' E 004°04'4 8.0 22.8
2014-Oct-22 13:19N 40°31' E 004°09'0 0.0 22.9
2014-Oct-22 11:42N 40°31' E 004°09'0 0.0
2014-Oct-22 11:36N 40°31' E 004°09'0 0.0
2014-Oct-22 11:35N 40°31' E 004°09'1 0.9 22.9
2014-Oct-22 10:47N 40°32' E 004°09'0 0.0 22.9
2014-Oct-22 10:01N 40°32' E 004°09'216.6 23.0
2014-Oct-22 09:54N 40°31' E 004°11'0 0.0 23.0
2014-Oct-22 09:06N 40°31' E 004°11'119.9 23.0
2014-Oct-22 09:03N 40°32' E 004°12'3 3.4 23.0
2014-Oct-22 08:12N 40°32' E 004°16'0 0.0 23.1
2014-Oct-22 05:59N 40°32' E 004°16'0 1.7 23.4
2014-Oct-22 05:43N 40°32' E 004°16'1 7.0 23.4
2014-Oct-22 05:34N 40°33' E 004°17'0 0.0 23.4
2014-Oct-22 04:17N 40°33' E 004°17'0 0.9 23.6
2014-Oct-22 03:55N 40°33' E 004°17'0 2.0 23.6
2014-Oct-22 03:48N 40°33' E 004°17'0 1.5 23.6
2014-Oct-22 03:38N 40°33' E 004°17'214.0 23.6
2014-Oct-22 03:31N 40°33' E 004°19'0 0.0 23.6
2014-Oct-22 01:59N 40°33' E 004°19'0 0.0 23.6
2014-Oct-22 01:55N 40°33' E 004°19'1 9.0 23.6
2014-Oct-22 01:48N 40°33' E 004°18'0 0.0 23.6
2014-Oct-22 00:16N 40°33' E 004°18'1 0.2 23.7
2014-Oct-21 21:36N 40°33' E 004°19'113.6 23.8
2014-Oct-21 21:32N 40°32' E 004°19'0 0.0 23.8
2014-Oct-21 20:55N 40°32' E 004°19'0 0.0 23.8
2014-Oct-21 20:50N 40°32' E 004°19'0 0.0 23.8
2014-Oct-21 20:46N 40°32' E 004°19'0 0.0 23.8
2014-Oct-21 20:00N 40°32' E 004°19'0 2.6 23.8
2014-Oct-21 19:53N 40°32' E 004°19'0 4.4 23.8
2014-Oct-21 19:48N 40°32' E 004°18'1 1.5 23.8
2014-Oct-21 19:11N 40°31' E 004°18'0 0.0 23.9
2014-Oct-21 18:19N 40°31' E 004°18'0 0.0 23.9
2014-Oct-21 18:11N 40°31' E 004°18'0 0.4 23.9
2014-Oct-21 17:46N 40°31' E 004°18'0 0.7 23.9
2014-Oct-21 17:21N 40°31' E 004°19'1 0.7 23.9
2014-Oct-21 16:05N 40°30' E 004°19'0 0.3 24.0
2014-Oct-21 15:40N 40°30' E 004°19'1 1.2 24.0
2014-Oct-21 15:14N 40°30' E 004°20'0 0.2 24.1
2014-Oct-21 14:26N 40°30' E 004°19'0 0.0 24.1
2014-Oct-21 14:00N 40°30' E 004°19'0 2.7
2014-Oct-21 13:56N 40°30' E 004°19'0 0.9 24.1
2014-Oct-21 13:51N 40°30' E 004°19'0 0.0 24.1
2014-Oct-21 13:35N 40°30' E 004°19'0 3.1
2014-Oct-21 13:30N 40°29' E 004°19'0 0.2 24.1
2014-Oct-21 11:54N 40°29' E 004°20'0 0.0 23.9
2014-Oct-21 11:53N 40°29' E 004°20'0 1.9 23.9
2014-Oct-21 11:49N 40°29' E 004°20'1 0.8 23.9
2014-Oct-21 11:03N 40°29' E 004°21'0 0.0 23.8
2014-Oct-21 10:19N 40°29' E 004°21'1 0.8 23.8
2014-Oct-21 09:29N 40°29' E 004°21'1 5.4 23.7
2014-Oct-21 09:22N 40°29' E 004°20'0 0.3 23.7
2014-Oct-21 08:35N 40°29' E 004°20'0 0.2 23.7
2014-Oct-21 06:22N 40°28' E 004°20'0 0.5 23.7
2014-Oct-21 06:01N 40°29' E 004°20'0 2.6 23.7
2014-Oct-21 05:54N 40°29' E 004°20'0 6.4 23.7
2014-Oct-21 05:50N 40°29' E 004°20'0 5.5 23.7
2014-Oct-21 05:47N 40°28' E 004°20'0 0.0 23.7
2014-Oct-21 04:41N 40°28' E 004°20'0 0.7 23.7
2014-Oct-21 04:17N 40°28' E 004°20'0 0.0 23.7
2014-Oct-21 04:11N 40°28' E 004°20'0 2.3 23.7
2014-Oct-21 04:03N 40°28' E 004°20'0 0.0 23.7
2014-Oct-21 03:50N 40°28' E 004°20'0 3.1 23.7
2014-Oct-21 03:43N 40°28' E 004°20'0 0.0 23.8
2014-Oct-21 02:08N 40°28' E 004°20'0 0.0 23.8
2014-Oct-21 01:59N 40°28' E 004°20'1 0.8 23.8
2014-Oct-21 00:27N 40°27' E 004°21'0 8.8 23.8
2014-Oct-21 00:24N 40°27' E 004°21'0 0.0 23.8
2014-Oct-20 22:02N 40°27' E 004°21'0 0.0 23.9
2014-Oct-20 21:57N 40°27' E 004°21'0 0.0 23.9
2014-Oct-20 21:53N 40°27' E 004°21'0 0.0 23.9
2014-Oct-20 21:14N 40°27' E 004°21'1 5.4 23.9
2014-Oct-20 21:06N 40°26' E 004°21'0 0.2 23.9
2014-Oct-20 20:20N 40°26' E 004°21'0 0.0 23.9
2014-Oct-20 20:14N 40°26' E 004°21'0 0.6 23.9
2014-Oct-20 19:27N 40°26' E 004°21'0 0.1 23.9
2014-Oct-20 18:43N 40°26' E 004°21'1 4.5 23.9
2014-Oct-20 18:35N 40°26' E 004°22'0 0.0 23.9
2014-Oct-20 18:11N 40°26' E 004°22'1 1.2 23.9
2014-Oct-20 17:30N 40°25' E 004°21'0 0.0 24.0
2014-Oct-20 17:05N 40°25' E 004°21'0 0.0 24.0
2014-Oct-20 17:00N 40°25' E 004°21'0 6.1 24.0
2014-Oct-20 16:57N 40°25' E 004°21'0 0.0 24.0
2014-Oct-20 16:32N 40°25' E 004°21'0 0.1 24.0
2014-Oct-20 15:46N 40°25' E 004°21'0 0.5 24.1
2014-Oct-20 15:26N 40°25' E 004°22'0 0.0 24.2
2014-Oct-20 14:51N 40°25' E 004°22'0 0.0 24.2
2014-Oct-20 14:07N 40°25' E 004°22'0 6.1 24.1
2014-Oct-20 14:03N 40°25' E 004°22'0 0.0 24.1
2014-Oct-20 13:48N 40°25' E 004°22'0 0.2 24.1
2014-Oct-20 12:14N 40°24' E 004°22'0 0.4
2014-Oct-20 12:02N 40°24' E 004°22'0 0.8 23.9
2014-Oct-20 11:28N 40°24' E 004°22'0 0.1
2014-Oct-20 10:38N 40°24' E 004°22'0 0.5 23.9
2014-Oct-20 09:54N 40°24' E 004°23'0 0.0 23.8
2014-Oct-20 09:51N 40°24' E 004°23'0 3.7 23.8
2014-Oct-20 09:45N 40°24' E 004°22'0 0.0 23.8
2014-Oct-20 09:00N 40°24' E 004°22'0 0.0 23.8
2014-Oct-20 08:58N 40°24' E 004°22'0 0.6 23.8
2014-Oct-20 08:05N 40°23' E 004°22'0 0.0
2014-Oct-20 06:49N 40°23' E 004°22'0 2.1 23.7
2014-Oct-20 06:45N 40°23' E 004°22'0 0.3 23.7
2014-Oct-20 06:31N 40°24' E 004°22'0 0.9 23.7
2014-Oct-20 06:05N 40°23' E 004°23'0 1.4 23.7
2014-Oct-20 06:01N 40°23' E 004°23'0 5.1 23.7
2014-Oct-20 05:56N 40°23' E 004°22'0 0.0 23.8
2014-Oct-20 05:08N 40°23' E 004°22'0 1.0 23.8
2014-Oct-20 04:54N 40°23' E 004°22'1 0.4 23.8
2014-Oct-20 03:12N 40°22' E 004°23'0 0.0 23.8
2014-Oct-20 02:36N 40°22' E 004°23'0 0.0 23.8
2014-Oct-20 02:22N 40°22' E 004°23'0 3.0 23.8
2014-Oct-20 02:19N 40°22' E 004°23'0 0.2 23.8
2014-Oct-20 00:38N 40°23' E 004°23'1 0.3 23.8
2014-Oct-19 22:24N 40°22' E 004°24'1 5.1 23.9
2014-Oct-19 22:18N 40°22' E 004°23'111.8 23.9
2014-Oct-19 22:15N 40°22' E 004°24'0 0.4 23.9
2014-Oct-19 21:32N 40°22' E 004°24'0 0.0 23.9
2014-Oct-19 21:29N 40°22' E 004°24'110.6 23.9
2014-Oct-19 21:25N 40°22' E 004°24'0 0.0 23.9
2014-Oct-19 20:43N 40°22' E 004°24'0 1.6 23.9
2014-Oct-19 20:36N 40°21' E 004°24'0 0.0 23.9
2014-Oct-19 19:52N 40°21' E 004°24'0 3.3
2014-Oct-19 19:46N 40°21' E 004°24'0 0.0 23.9
2014-Oct-19 19:11N 40°21' E 004°24'1 4.3 23.9
2014-Oct-19 19:00N 40°22' E 004°24'0 0.0 23.9
2014-Oct-19 18:34N 40°22' E 004°24'0 0.4 23.9
2014-Oct-19 17:43N 40°22' E 004°24'1 1.8 24.0
2014-Oct-19 16:55N 40°21' E 004°24'0 0.0 24.0
2014-Oct-19 16:02N 40°21' E 004°24'0 2.6 24.0
2014-Oct-19 15:53N 40°21' E 004°25'1 1.1 24.0
2014-Oct-19 15:14N 40°20' E 004°25'0 0.0 24.0
2014-Oct-19 14:20N 40°20' E 004°25'0 0.7 24.1
2014-Oct-19 14:16N 40°20' E 004°25'0 0.6 24.1
2014-Oct-19 14:00N 40°20' E 004°25'0 0.2 24.1
2014-Oct-19 12:14N 40°20' E 004°25'0 3.1 23.9
2014-Oct-19 12:09N 40°20' E 004°25'0 0.0 23.9
2014-Oct-19 11:46N 40°20' E 004°25'0 0.1 23.9
2014-Oct-19 10:58N 40°20' E 004°25'0 6.1 23.8
2014-Oct-19 10:55N 40°20' E 004°25'0 0.2 23.8
2014-Oct-19 10:10N 40°20' E 004°26'0 0.0 23.8
2014-Oct-19 09:19N 40°20' E 004°26'0 0.4 23.7
2014-Oct-19 08:31N 40°20' E 004°26'0 0.0 23.7
2014-Oct-19 07:35N 40°20' E 004°26'0 0.0 23.7
2014-Oct-19 07:14N 40°20' E 004°26'0 0.0 23.6
2014-Oct-19 07:10N 40°20' E 004°26'0 0.0 23.6
2014-Oct-19 07:03N 40°20' E 004°26'1 0.8 23.6
2014-Oct-19 06:15N 40°19' E 004°26'0 3.1 23.6
2014-Oct-19 06:08N 40°19' E 004°27'0 0.1 23.6
2014-Oct-19 05:33N 40°19' E 004°27'0 2.2 23.6
2014-Oct-19 05:21N 40°19' E 004°26'1 1.1 23.6
2014-Oct-19 04:35N 40°19' E 004°27'0 0.4 23.7
2014-Oct-19 04:10N 40°18' E 004°27'0 2.2 23.7
2014-Oct-19 04:05N 40°18' E 004°27'0 0.0 23.7
2014-Oct-19 03:49N 40°18' E 004°27'0 0.0 23.7
2014-Oct-19 03:42N 40°18' E 004°27'0 0.4 23.7
2014-Oct-19 02:51N 40°18' E 004°27'0 0.0 23.7
2014-Oct-19 02:33N 40°18' E 004°27'0 0.7 23.7
2014-Oct-19 02:29N 40°18' E 004°27'0 0.2 23.7
2014-Oct-19 00:50N 40°18' E 004°28'0 0.0 23.7
2014-Oct-19 00:47N 40°18' E 004°28'1 0.2 23.7
2014-Oct-18 22:43N 40°18' E 004°28'0 4.3 23.7
2014-Oct-18 22:38N 40°18' E 004°28'0 0.0 23.7
2014-Oct-18 21:55N 40°18' E 004°28'1 3.9 23.7
2014-Oct-18 21:47N 40°18' E 004°29'0 0.0 23.7
2014-Oct-18 21:04N 40°18' E 004°29'1 9.6 23.7
2014-Oct-18 20:57N 40°18' E 004°28'0 0.0 23.7
2014-Oct-18 20:54N 40°18' E 004°28'0 0.0 23.7
2014-Oct-18 20:17N 40°18' E 004°28'1 5.5 23.7
2014-Oct-18 20:09N 40°18' E 004°28'0 2.6 23.7
2014-Oct-18 20:06N 40°18' E 004°28'0 0.0 23.7
2014-Oct-18 19:45N 40°18' E 004°28'0 0.9 23.7
2014-Oct-18 19:41N 40°18' E 004°28'1 1.8 23.7
2014-Oct-18 19:16N 40°17' E 004°29'0 0.0 23.8
2014-Oct-18 18:08N 40°17' E 004°29'0 0.0 23.8
2014-Oct-18 17:20N 40°17' E 004°29'0 0.4 23.9
2014-Oct-18 16:15N 40°17' E 004°29'0 9.1 23.9
2014-Oct-18 16:13N 40°17' E 004°29'0 0.4 23.9
2014-Oct-18 15:41N 40°17' E 004°29'0 0.1 23.9
2014-Oct-18 14:34N 40°17' E 004°29'0 4.1 24.0
2014-Oct-18 14:27N 40°17' E 004°29'0 0.9 24.0
2014-Oct-18 14:11N 40°17' E 004°29'1 0.3 24.0
2014-Oct-18 12:30N 40°16' E 004°29'1 0.5 23.9
2014-Oct-18 11:18N 40°16' E 004°30'0 0.3 23.9
2014-Oct-18 10:44N 40°16' E 004°30'0 0.0
2014-Oct-18 10:35N 40°16' E 004°30'1 0.6 23.8
2014-Oct-18 09:44N 40°16' E 004°30'0 0.0
2014-Oct-18 09:41N 40°16' E 004°30'0 0.0 23.6
2014-Oct-18 09:35N 40°16' E 004°30'0 0.4 23.6
2014-Oct-18 08:48N 40°16' E 004°31'0 0.0 23.6
2014-Oct-18 07:56N 40°16' E 004°31'1 1.7 23.6
2014-Oct-18 07:33N 40°15' E 004°31'0 0.0 23.6
2014-Oct-18 06:26N 40°15' E 004°31'0 3.7 23.6
2014-Oct-18 06:23N 40°15' E 004°31'0 2.2 23.6
2014-Oct-18 06:19N 40°15' E 004°31'0 0.0 23.6
2014-Oct-18 06:01N 40°15' E 004°31'0 2.2 23.6
2014-Oct-18 05:58N 40°15' E 004°31'0 0.0 23.6
2014-Oct-18 05:56N 40°15' E 004°31'0 0.4 23.6
2014-Oct-18 04:51N 40°15' E 004°31'0 0.0 23.6
2014-Oct-18 04:46N 40°15' E 004°31'0 0.1 23.6
2014-Oct-18 02:58N 40°15' E 004°31'0 0.0
2014-Oct-18 02:44N 40°15' E 004°31'0 2.7 23.6
2014-Oct-18 02:40N 40°15' E 004°31'0 0.2 23.6
2014-Oct-18 01:03N 40°15' E 004°31'0 0.0 23.6
2014-Oct-18 00:58N 40°15' E 004°31'0 0.2 23.6
2014-Oct-17 23:03N 40°14' E 004°32'0 0.0 23.6
2014-Oct-17 21:24N 40°14' E 004°32'0 2.9 23.6
2014-Oct-17 21:19N 40°14' E 004°32'0 0.0 23.6
2014-Oct-17 20:38N 40°14' E 004°32'0 0.0 23.7
2014-Oct-17 20:26N 40°14' E 004°32'0 0.0 23.6
2014-Oct-17 20:15N 40°14' E 004°32'0 0.0 23.7
2014-Oct-17 19:41N 40°14' E 004°32'0 3.9 23.6
2014-Oct-17 19:36N 40°14' E 004°31'0 0.0 23.6
2014-Oct-17 18:57N 40°14' E 004°31'0 0.0 23.7
2014-Oct-17 18:34N 40°14' E 004°31'1 1.7 23.7
2014-Oct-17 17:45N 40°14' E 004°33'1 1.5 23.7
2014-Oct-17 16:52N 40°13' E 004°32'0 0.0
2014-Oct-17 16:25N 40°13' E 004°32'0 1.2 23.8
2014-Oct-17 16:06N 40°13' E 004°32'0 0.2 23.8
2014-Oct-17 14:43N 40°13' E 004°32'0 4.5 23.8
2014-Oct-17 14:38N 40°13' E 004°33'0 1.7 23.8
2014-Oct-17 14:22N 40°13' E 004°33'1 0.3 23.8
2014-Oct-17 11:37N 40°13' E 004°34'0 0.0 23.7
2014-Oct-17 10:58N 40°13' E 004°34'0 0.8 23.7
2014-Oct-17 10:51N 40°13' E 004°34'0 0.3 23.7
2014-Oct-17 10:02N 40°13' E 004°34'0 0.1 23.6
2014-Oct-17 09:09N 40°13' E 004°34'0 0.0 23.6
2014-Oct-17 08:23N 40°13' E 004°34'0 1.1 23.6
2014-Oct-17 08:19N 40°13' E 004°34'0 7.7 23.6
2014-Oct-17 08:16N 40°13' E 004°34'1 0.4 23.6
2014-Oct-17 06:32N 40°13' E 004°35'0 0.0 23.6
2014-Oct-17 06:16N 40°13' E 004°35'0 0.0 23.6
2014-Oct-17 05:00N 40°13' E 004°35'0 4.2 23.6
2014-Oct-17 04:56N 40°13' E 004°34'0 0.0 23.6
2014-Oct-17 04:44N 40°13' E 004°34'0 0.0 23.6
2014-Oct-17 04:40N 40°13' E 004°34'1 3.6 23.6
2014-Oct-17 04:28N 40°13' E 004°33'0 0.0 23.6
2014-Oct-17 03:14N 40°13' E 004°33'0 0.0 23.6
2014-Oct-17 03:05N 40°13' E 004°33'0 1.6 23.6
2014-Oct-17 02:54N 40°14' E 004°34'0 5.4 23.6
2014-Oct-17 02:49N 40°13' E 004°33'0 0.0 23.6
2014-Oct-17 01:14N 40°13' E 004°33'0 0.0 23.6
2014-Oct-17 01:10N 40°13' E 004°33'0 0.2 23.6
2014-Oct-16 22:31N 40°13' E 004°34'1 0.8 23.6
2014-Oct-16 21:38N 40°13' E 004°33'0 0.0 23.6
2014-Oct-16 20:58N 40°13' E 004°33'0 0.5 23.6
2014-Oct-16 20:49N 40°13' E 004°33'0 0.0 23.6
2014-Oct-16 20:43N 40°13' E 004°33'0 0.0
2014-Oct-16 20:03N 40°13' E 004°33'0 4.2 23.7
2014-Oct-16 19:57N 40°13' E 004°34'0 0.3 23.7
2014-Oct-16 19:12N 40°13' E 004°34'0 0.0 23.7
2014-Oct-16 19:04N 40°13' E 004°34'0 0.0 23.7
2014-Oct-16 18:06N 40°13' E 004°34'0 0.1 23.7
2014-Oct-16 14:54N 40°13' E 004°34'0 6.3 23.7
2014-Oct-16 14:50N 40°13' E 004°34'0 0.2 23.7
2014-Oct-16 12:52N 40°13' E 004°34'0 0.5 23.7
2014-Oct-16 12:46N 40°13' E 004°35'0 0.0 23.7
2014-Oct-16 11:57N 40°13' E 004°35'2 2.6 23.7
2014-Oct-16 11:13N 40°13' E 004°32'0 0.0 23.7
2014-Oct-16 11:09N 40°13' E 004°32'0 0.0 23.7
2014-Oct-16 09:32N 40°13' E 004°32'215.0 23.7
2014-Oct-16 09:25N 40°13' E 004°34'0 0.1 23.7
2014-Oct-16 05:16N 40°13' E 004°34'0 0.7 23.7
2014-Oct-16 05:07N 40°12' E 004°34'0 0.0 23.7
2014-Oct-16 05:00N 40°12' E 004°34'0 0.1 23.7
2014-Oct-16 03:07N 40°13' E 004°34'1 0.2 23.7
2014-Oct-15 22:07N 40°12' E 004°35'0 0.2 23.7
2014-Oct-15 21:15N 40°12' E 004°35'0 0.2 23.8
2014-Oct-15 20:26N 40°12' E 004°35'1 6.8 23.8
2014-Oct-15 20:15N 40°13' E 004°36'0 0.0 23.8
2014-Oct-15 19:31N 40°13' E 004°36'1 0.4 23.8
2014-Oct-15 16:56N 40°12' E 004°35'1 0.9 23.9
2014-Oct-15 16:19N 40°12' E 004°36'1 0.5 23.9
2014-Oct-15 15:13N 40°12' E 004°35'0 2.6 23.9
2014-Oct-15 15:08N 40°12' E 004°35'0 0.7 23.9
2014-Oct-15 14:41N 40°12' E 004°35'0 0.0 23.9
2014-Oct-15 13:24N 40°12' E 004°35'0 0.0 23.9
2014-Oct-15 13:02N 40°12' E 004°35'0 0.0 23.9
2014-Oct-15 12:57N 40°12' E 004°35'0 0.1 23.9
2014-Oct-15 10:43N 40°12' E 004°36'0 2.7 23.8
2014-Oct-15 10:39N 40°12' E 004°36'110.8 23.8
2014-Oct-15 10:36N 40°12' E 004°36'0 0.0 23.8
2014-Oct-15 09:57N 40°12' E 004°36'0 1.8 23.8
2014-Oct-15 09:52N 40°12' E 004°36'0 0.2 23.8
2014-Oct-15 09:00N 40°12' E 004°36'2 1.0 23.7
2014-Oct-15 07:06N 40°12' E 004°38'0 0.0 23.8
2014-Oct-15 06:57N 40°12' E 004°38'0 0.4 23.8
2014-Oct-15 05:48N 40°12' E 004°38'1 3.9 23.8
2014-Oct-15 05:30N 40°11' E 004°36'1 6.4 23.8
2014-Oct-15 05:18N 40°11' E 004°38'0 0.0 23.8
2014-Oct-15 04:04N 40°11' E 004°38'0 0.0 23.8
2014-Oct-15 03:41N 40°11' E 004°38'114.9 23.8
2014-Oct-15 03:37N 40°11' E 004°37'0 0.0 23.8
2014-Oct-15 03:16N 40°11' E 004°37'0 1.6 23.8
2014-Oct-15 03:12N 40°11' E 004°37'1 0.6 23.8
2014-Oct-15 01:33N 40°11' E 004°38'0 0.0 23.9
2014-Oct-14 22:26N 40°11' E 004°38'0 0.0 23.9
2014-Oct-14 21:39N 40°11' E 004°38'0 1.4 23.9
2014-Oct-14 21:31N 40°11' E 004°38'0 0.0 23.9
2014-Oct-14 20:44N 40°11' E 004°38'0 0.0 23.9
2014-Oct-14 20:37N 40°11' E 004°38'1 0.4 23.9
2014-Oct-14 19:01N 40°12' E 004°39'1 0.4 23.9
2014-Oct-14 17:17N 40°11' E 004°39'246.2 23.9
2014-Oct-14 17:15N 40°12' E 004°40'2 0.9 23.9
2014-Oct-14 15:38N 40°11' E 004°38'0 0.3 23.9
2014-Oct-14 15:17N 40°11' E 004°38'   23.9
Track history (hours):
 
Tides and Currents Weather Stations Pressure Air Temp Water Temp Dewpoint Dewpoint Depression Visibility Wind Speed Wind Dir Waves Ship Positions

Drifting buoy 62910

Last reported at 2014-Oct-24 15:06 UTC. Time now 2014-Oct-24 16:56 UTC.
Position N 40°42' E 003°53'.

Water temperature 22.7 ° C

Date/timePositionNaut miles runAvg speedWind from/ knotsBaromVisibWave heightAir tempDewpointWater temp
2014-Oct-24 15:06N 40°42' E 003°53'1 3.8 22.7
2014-Oct-24 14:49N 40°42' E 003°53'0 2.2
2014-Oct-24 14:45N 40°42' E 003°53'1 0.4 22.7
2014-Oct-24 13:04N 40°43' E 003°54'0 3.3 22.7
2014-Oct-24 12:57N 40°43' E 003°55'1 1.0 22.7
2014-Oct-24 11:43N 40°44' E 003°54'0 0.0 22.7
2014-Oct-24 11:22N 40°44' E 003°54'1 6.0 22.7
2014-Oct-24 11:17N 40°44' E 003°54'0 0.0 22.7
2014-Oct-24 10:52N 40°44' E 003°54'0 0.1 22.7
2014-Oct-24 10:08N 40°44' E 003°54'0 0.0 22.6
2014-Oct-24 10:01N 40°44' E 003°54'2 2.0
2014-Oct-24 09:15N 40°44' E 003°52'0 0.0 22.6
2014-Oct-24 08:24N 40°44' E 003°52'0 0.2 22.6
2014-Oct-24 06:07N 40°43' E 003°53'2 2.1 22.6
2014-Oct-24 05:14N 40°42' E 003°52'0 0.0 22.6
2014-Oct-24 05:06N 40°42' E 003°52'0 0.0 22.6
2014-Oct-24 04:52N 40°42' E 003°52'0 0.0 22.6
2014-Oct-24 04:25N 40°42' E 003°52'1 0.6 22.6
2014-Oct-24 03:34N 40°42' E 003°51'2 4.9 22.6
2014-Oct-24 03:14N 40°41' E 003°53'0 0.0 22.6
2014-Oct-24 03:09N 40°41' E 003°53'0 0.0
2014-Oct-24 01:37N 40°41' E 003°53'0 0.0 22.6
2014-Oct-24 01:34N 40°41' E 003°53'2 0.8 22.6
2014-Oct-23 22:41N 40°38' E 003°54'219.1 22.6
2014-Oct-23 22:35N 40°38' E 003°56'0 0.0 22.6
2014-Oct-23 21:48N 40°38' E 003°56'0 0.0 22.6
2014-Oct-23 20:58N 40°38' E 003°56'0 0.9 22.6
2014-Oct-23 20:53N 40°38' E 003°56'0 0.0 22.6
2014-Oct-23 20:26N 40°38' E 003°56'1 6.3 22.6
2014-Oct-23 20:12N 40°39' E 003°58'0 0.0 22.6
2014-Oct-23 20:03N 40°39' E 003°58'0 0.0 22.6
2014-Oct-23 19:16N 40°39' E 003°58'0 0.0 22.6
2014-Oct-23 19:12N 40°39' E 003°58'0 0.1 22.6
2014-Oct-23 18:46N 40°39' E 003°58'1 3.6 22.6
2014-Oct-23 18:31N 40°39' E 003°58'0 0.0 22.6
2014-Oct-23 17:10N 40°39' E 003°58'2 7.4 22.6
2014-Oct-23 16:54N 40°41' E 003°57'0 0.2 22.6
2014-Oct-23 15:15N 40°41' E 003°57'2 6.7 22.6
2014-Oct-23 14:54N 40°39' E 003°55'0 0.0 22.6
2014-Oct-23 13:31N 40°39' E 003°55'0 0.0 22.6
2014-Oct-23 13:15N 40°39' E 003°55'0 0.0 22.6
2014-Oct-23 11:29N 40°39' E 003°55'3 9.9 22.6
2014-Oct-23 11:13N 40°37' E 003°55'0 0.0 22.6
2014-Oct-23 10:29N 40°37' E 003°55'0 0.0 22.6
2014-Oct-23 09:36N 40°37' E 003°55'0 0.0 22.6
2014-Oct-23 09:33N 40°37' E 003°55'1 1.2 22.6
2014-Oct-23 08:43N 40°36' E 003°56'0 0.0 22.6
2014-Oct-23 07:52N 40°36' E 003°56'0 0.0 22.6
2014-Oct-23 07:04N 40°36' E 003°56'0 0.0 22.6
2014-Oct-23 06:38N 40°36' E 003°56'1 1.1 22.6
2014-Oct-23 05:32N 40°35' E 003°56'0 6.8 22.6
2014-Oct-23 05:29N 40°35' E 003°56'1 1.3 22.6
2014-Oct-23 04:59N 40°35' E 003°55'2 1.6 22.6
2014-Oct-23 03:52N 40°35' E 003°58'0 1.1
2014-Oct-23 03:48N 40°35' E 003°58'0 1.2 22.6
2014-Oct-23 03:27N 40°35' E 003°58'2 0.9 22.6
2014-Oct-23 01:48N 40°34' E 004°00'318.8 22.6
2014-Oct-23 01:39N 40°37' E 004°03'0 0.0 22.6
2014-Oct-22 22:57N 40°37' E 004°03'0 0.0 22.6
2014-Oct-22 22:09N 40°37' E 004°03'0 0.0 22.6
2014-Oct-22 22:05N 40°37' E 004°03'0 0.0 22.6
2014-Oct-22 21:18N 40°37' E 004°03'1 7.7 22.6
2014-Oct-22 21:14N 40°37' E 004°02'0 0.0 22.6
2014-Oct-22 20:28N 40°37' E 004°02'0 0.0 22.7
2014-Oct-22 20:23N 40°37' E 004°02'0 0.0 22.7
2014-Oct-22 19:37N 40°37' E 004°02'0 5.7 22.7
2014-Oct-22 19:32N 40°37' E 004°02'0 0.0 22.7
2014-Oct-22 19:19N 40°37' E 004°02'3 2.0 22.7
2014-Oct-22 17:40N 40°34' E 004°02'0 0.0 22.7
2014-Oct-22 17:23N 40°34' E 004°02'0 0.0 22.7
2014-Oct-22 17:09N 40°34' E 004°02'0 0.0 22.7
2014-Oct-22 15:38N 40°34' E 004°02'0 0.0 22.8
2014-Oct-22 15:30N 40°34' E 004°02'0 4.0 22.8
2014-Oct-22 15:23N 40°34' E 004°03'0 0.0 22.8
2014-Oct-22 15:05N 40°34' E 004°03'2 1.4 22.8
2014-Oct-22 13:47N 40°33' E 004°04'4 8.0 22.8
2014-Oct-22 13:19N 40°31' E 004°09'0 0.0 22.9
2014-Oct-22 11:42N 40°31' E 004°09'0 0.0
2014-Oct-22 11:36N 40°31' E 004°09'0 0.0
2014-Oct-22 11:35N 40°31' E 004°09'1 0.9 22.9
2014-Oct-22 10:47N 40°32' E 004°09'0 0.0 22.9
2014-Oct-22 10:01N 40°32' E 004°09'216.6 23.0
2014-Oct-22 09:54N 40°31' E 004°11'0 0.0 23.0
2014-Oct-22 09:06N 40°31' E 004°11'119.9 23.0
2014-Oct-22 09:03N 40°32' E 004°12'3 3.4 23.0
2014-Oct-22 08:12N 40°32' E 004°16'0 0.0 23.1
2014-Oct-22 05:59N 40°32' E 004°16'0 1.7 23.4
2014-Oct-22 05:43N 40°32' E 004°16'1 7.0 23.4
2014-Oct-22 05:34N 40°33' E 004°17'0 0.0 23.4
2014-Oct-22 04:17N 40°33' E 004°17'0 0.9 23.6
2014-Oct-22 03:55N 40°33' E 004°17'0 2.0 23.6
2014-Oct-22 03:48N 40°33' E 004°17'0 1.5 23.6
2014-Oct-22 03:38N 40°33' E 004°17'214.0 23.6
2014-Oct-22 03:31N 40°33' E 004°19'0 0.0 23.6
2014-Oct-22 01:59N 40°33' E 004°19'0 0.0 23.6
2014-Oct-22 01:55N 40°33' E 004°19'1 9.0 23.6
2014-Oct-22 01:48N 40°33' E 004°18'0 0.0 23.6
2014-Oct-22 00:16N 40°33' E 004°18'1 0.2 23.7
2014-Oct-21 21:36N 40°33' E 004°19'113.6 23.8
2014-Oct-21 21:32N 40°32' E 004°19'0 0.0 23.8
2014-Oct-21 20:55N 40°32' E 004°19'0 0.0 23.8
2014-Oct-21 20:50N 40°32' E 004°19'0 0.0 23.8
2014-Oct-21 20:46N 40°32' E 004°19'0 0.0 23.8
2014-Oct-21 20:00N 40°32' E 004°19'0 2.6 23.8
2014-Oct-21 19:53N 40°32' E 004°19'0 4.4 23.8
2014-Oct-21 19:48N 40°32' E 004°18'1 1.5 23.8
2014-Oct-21 19:11N 40°31' E 004°18'0 0.0 23.9
2014-Oct-21 18:19N 40°31' E 004°18'0 0.0 23.9
2014-Oct-21 18:11N 40°31' E 004°18'0 0.4 23.9
2014-Oct-21 17:46N 40°31' E 004°18'0 0.7 23.9
2014-Oct-21 17:21N 40°31' E 004°19'1 0.7 23.9
2014-Oct-21 16:05N 40°30' E 004°19'0 0.3 24.0
2014-Oct-21 15:40N 40°30' E 004°19'1 1.2 24.0
2014-Oct-21 15:14N 40°30' E 004°20'0 0.2 24.1
2014-Oct-21 14:26N 40°30' E 004°19'0 0.0 24.1
2014-Oct-21 14:00N 40°30' E 004°19'0 2.7
2014-Oct-21 13:56N 40°30' E 004°19'0 0.9 24.1
2014-Oct-21 13:51N 40°30' E 004°19'0 0.0 24.1
2014-Oct-21 13:35N 40°30' E 004°19'0 3.1
2014-Oct-21 13:30N 40°29' E 004°19'0 0.2 24.1
2014-Oct-21 11:54N 40°29' E 004°20'0 0.0 23.9
2014-Oct-21 11:53N 40°29' E 004°20'0 1.9 23.9
2014-Oct-21 11:49N 40°29' E 004°20'1 0.8 23.9
2014-Oct-21 11:03N 40°29' E 004°21'0 0.0 23.8
2014-Oct-21 10:19N 40°29' E 004°21'1 0.8 23.8
2014-Oct-21 09:29N 40°29' E 004°21'1 5.4 23.7
2014-Oct-21 09:22N 40°29' E 004°20'0 0.3 23.7
2014-Oct-21 08:35N 40°29' E 004°20'0 0.2 23.7
2014-Oct-21 06:22N 40°28' E 004°20'0 0.5 23.7
2014-Oct-21 06:01N 40°29' E 004°20'0 2.6 23.7
2014-Oct-21 05:54N 40°29' E 004°20'0 6.4 23.7
2014-Oct-21 05:50N 40°29' E 004°20'0 5.5 23.7
2014-Oct-21 05:47N 40°28' E 004°20'0 0.0 23.7
2014-Oct-21 04:41N 40°28' E 004°20'0 0.7 23.7
2014-Oct-21 04:17N 40°28' E 004°20'0 0.0 23.7
2014-Oct-21 04:11N 40°28' E 004°20'0 2.3 23.7
2014-Oct-21 04:03N 40°28' E 004°20'0 0.0 23.7
2014-Oct-21 03:50N 40°28' E 004°20'0 3.1 23.7
2014-Oct-21 03:43N 40°28' E 004°20'0 0.0 23.8
2014-Oct-21 02:08N 40°28' E 004°20'0 0.0 23.8
2014-Oct-21 01:59N 40°28' E 004°20'1 0.8 23.8
2014-Oct-21 00:27N 40°27' E 004°21'0 8.8 23.8
2014-Oct-21 00:24N 40°27' E 004°21'0 0.0 23.8
2014-Oct-20 22:02N 40°27' E 004°21'0 0.0 23.9
2014-Oct-20 21:57N 40°27' E 004°21'0 0.0 23.9
2014-Oct-20 21:53N 40°27' E 004°21'0 0.0 23.9
2014-Oct-20 21:14N 40°27' E 004°21'1 5.4 23.9
2014-Oct-20 21:06N 40°26' E 004°21'0 0.2 23.9
2014-Oct-20 20:20N 40°26' E 004°21'0 0.0 23.9
2014-Oct-20 20:14N 40°26' E 004°21'0 0.6 23.9
2014-Oct-20 19:27N 40°26' E 004°21'0 0.1 23.9
2014-Oct-20 18:43N 40°26' E 004°21'1 4.5 23.9
2014-Oct-20 18:35N 40°26' E 004°22'0 0.0 23.9
2014-Oct-20 18:11N 40°26' E 004°22'1 1.2 23.9
2014-Oct-20 17:30N 40°25' E 004°21'0 0.0 24.0
2014-Oct-20 17:05N 40°25' E 004°21'0 0.0 24.0
2014-Oct-20 17:00N 40°25' E 004°21'0 6.1 24.0
2014-Oct-20 16:57N 40°25' E 004°21'0 0.0 24.0
2014-Oct-20 16:32N 40°25' E 004°21'0 0.1 24.0
2014-Oct-20 15:46N 40°25' E 004°21'0 0.5 24.1
2014-Oct-20 15:26N 40°25' E 004°22'0 0.0 24.2
2014-Oct-20 14:51N 40°25' E 004°22'0 0.0 24.2
2014-Oct-20 14:07N 40°25' E 004°22'0 6.1 24.1
2014-Oct-20 14:03N 40°25' E 004°22'0 0.0 24.1
2014-Oct-20 13:48N 40°25' E 004°22'0 0.2 24.1
2014-Oct-20 12:14N 40°24' E 004°22'0 0.4
2014-Oct-20 12:02N 40°24' E 004°22'0 0.8 23.9
2014-Oct-20 11:28N 40°24' E 004°22'0 0.1
2014-Oct-20 10:38N 40°24' E 004°22'0 0.5 23.9
2014-Oct-20 09:54N 40°24' E 004°23'0 0.0 23.8
2014-Oct-20 09:51N 40°24' E 004°23'0 3.7 23.8
2014-Oct-20 09:45N 40°24' E 004°22'0 0.0 23.8
2014-Oct-20 09:00N 40°24' E 004°22'0 0.0 23.8
2014-Oct-20 08:58N 40°24' E 004°22'0 0.6 23.8
2014-Oct-20 08:05N 40°23' E 004°22'0 0.0
2014-Oct-20 06:49N 40°23' E 004°22'0 2.1 23.7
2014-Oct-20 06:45N 40°23' E 004°22'0 0.3 23.7
2014-Oct-20 06:31N 40°24' E 004°22'0 0.9 23.7
2014-Oct-20 06:05N 40°23' E 004°23'0 1.4 23.7
2014-Oct-20 06:01N 40°23' E 004°23'0 5.1 23.7
2014-Oct-20 05:56N 40°23' E 004°22'0 0.0 23.8
2014-Oct-20 05:08N 40°23' E 004°22'0 1.0 23.8
2014-Oct-20 04:54N 40°23' E 004°22'1 0.4 23.8
2014-Oct-20 03:12N 40°22' E 004°23'0 0.0 23.8
2014-Oct-20 02:36N 40°22' E 004°23'0 0.0 23.8
2014-Oct-20 02:22N 40°22' E 004°23'0 3.0 23.8
2014-Oct-20 02:19N 40°22' E 004°23'0 0.2 23.8
2014-Oct-20 00:38N 40°23' E 004°23'1 0.3 23.8
2014-Oct-19 22:24N 40°22' E 004°24'1 5.1 23.9
2014-Oct-19 22:18N 40°22' E 004°23'111.8 23.9
2014-Oct-19 22:15N 40°22' E 004°24'0 0.4 23.9
2014-Oct-19 21:32N 40°22' E 004°24'0 0.0 23.9
2014-Oct-19 21:29N 40°22' E 004°24'110.6 23.9
2014-Oct-19 21:25N 40°22' E 004°24'0 0.0 23.9
2014-Oct-19 20:43N 40°22' E 004°24'0 1.6 23.9
2014-Oct-19 20:36N 40°21' E 004°24'0 0.0 23.9
2014-Oct-19 19:52N 40°21' E 004°24'0 3.3
2014-Oct-19 19:46N 40°21' E 004°24'0 0.0 23.9
2014-Oct-19 19:11N 40°21' E 004°24'1 4.3 23.9
2014-Oct-19 19:00N 40°22' E 004°24'0 0.0 23.9
2014-Oct-19 18:34N 40°22' E 004°24'0 0.4 23.9
2014-Oct-19 17:43N 40°22' E 004°24'1 1.8 24.0
2014-Oct-19 16:55N 40°21' E 004°24'0 0.0 24.0
2014-Oct-19 16:02N 40°21' E 004°24'0 2.6 24.0
2014-Oct-19 15:53N 40°21' E 004°25'1 1.1 24.0
2014-Oct-19 15:14N 40°20' E 004°25'0 0.0 24.0
2014-Oct-19 14:20N 40°20' E 004°25'0 0.7 24.1
2014-Oct-19 14:16N 40°20' E 004°25'0 0.6 24.1
2014-Oct-19 14:00N 40°20' E 004°25'0 0.2 24.1
2014-Oct-19 12:14N 40°20' E 004°25'0 3.1 23.9
2014-Oct-19 12:09N 40°20' E 004°25'0 0.0 23.9
2014-Oct-19 11:46N 40°20' E 004°25'0 0.1 23.9
2014-Oct-19 10:58N 40°20' E 004°25'0 6.1 23.8
2014-Oct-19 10:55N 40°20' E 004°25'0 0.2 23.8
2014-Oct-19 10:10N 40°20' E 004°26'0 0.0 23.8
2014-Oct-19 09:19N 40°20' E 004°26'0 0.4 23.7
2014-Oct-19 08:31N 40°20' E 004°26'0 0.0 23.7
2014-Oct-19 07:35N 40°20' E 004°26'0 0.0 23.7
2014-Oct-19 07:14N 40°20' E 004°26'0 0.0 23.6
2014-Oct-19 07:10N 40°20' E 004°26'0 0.0 23.6
2014-Oct-19 07:03N 40°20' E 004°26'1 0.8 23.6
2014-Oct-19 06:15N 40°19' E 004°26'0 3.1 23.6
2014-Oct-19 06:08N 40°19' E 004°27'0 0.1 23.6
2014-Oct-19 05:33N 40°19' E 004°27'0 2.2 23.6
2014-Oct-19 05:21N 40°19' E 004°26'1 1.1 23.6
2014-Oct-19 04:35N 40°19' E 004°27'0 0.4 23.7
2014-Oct-19 04:10N 40°18' E 004°27'0 2.2 23.7
2014-Oct-19 04:05N 40°18' E 004°27'0 0.0 23.7
2014-Oct-19 03:49N 40°18' E 004°27'0 0.0 23.7
2014-Oct-19 03:42N 40°18' E 004°27'0 0.4 23.7
2014-Oct-19 02:51N 40°18' E 004°27'0 0.0 23.7
2014-Oct-19 02:33N 40°18' E 004°27'0 0.7 23.7
2014-Oct-19 02:29N 40°18' E 004°27'0 0.2 23.7
2014-Oct-19 00:50N 40°18' E 004°28'0 0.0 23.7
2014-Oct-19 00:47N 40°18' E 004°28'1 0.2 23.7
2014-Oct-18 22:43N 40°18' E 004°28'0 4.3 23.7
2014-Oct-18 22:38N 40°18' E 004°28'0 0.0 23.7
2014-Oct-18 21:55N 40°18' E 004°28'1 3.9 23.7
2014-Oct-18 21:47N 40°18' E 004°29'0 0.0 23.7
2014-Oct-18 21:04N 40°18' E 004°29'1 9.6 23.7
2014-Oct-18 20:57N 40°18' E 004°28'0 0.0 23.7
2014-Oct-18 20:54N 40°18' E 004°28'0 0.0 23.7
2014-Oct-18 20:17N 40°18' E 004°28'1 5.5 23.7
2014-Oct-18 20:09N 40°18' E 004°28'0 2.6 23.7
2014-Oct-18 20:06N 40°18' E 004°28'0 0.0 23.7
2014-Oct-18 19:45N 40°18' E 004°28'0 0.9 23.7
2014-Oct-18 19:41N 40°18' E 004°28'1 1.8 23.7
2014-Oct-18 19:16N 40°17' E 004°29'0 0.0 23.8
2014-Oct-18 18:08N 40°17' E 004°29'0 0.0 23.8
2014-Oct-18 17:20N 40°17' E 004°29'0 0.4 23.9
2014-Oct-18 16:15N 40°17' E 004°29'0 9.1 23.9
2014-Oct-18 16:13N 40°17' E 004°29'0 0.4 23.9
2014-Oct-18 15:41N 40°17' E 004°29'0 0.1 23.9
2014-Oct-18 14:34N 40°17' E 004°29'0 4.1 24.0
2014-Oct-18 14:27N 40°17' E 004°29'0 0.9 24.0
2014-Oct-18 14:11N 40°17' E 004°29'1 0.3 24.0
2014-Oct-18 12:30N 40°16' E 004°29'1 0.5 23.9
2014-Oct-18 11:18N 40°16' E 004°30'0 0.3 23.9
2014-Oct-18 10:44N 40°16' E 004°30'0 0.0
2014-Oct-18 10:35N 40°16' E 004°30'1 0.6 23.8
2014-Oct-18 09:44N 40°16' E 004°30'0 0.0
2014-Oct-18 09:41N 40°16' E 004°30'0 0.0 23.6
2014-Oct-18 09:35N 40°16' E 004°30'0 0.4 23.6
2014-Oct-18 08:48N 40°16' E 004°31'0 0.0 23.6
2014-Oct-18 07:56N 40°16' E 004°31'1 1.7 23.6
2014-Oct-18 07:33N 40°15' E 004°31'0 0.0 23.6
2014-Oct-18 06:26N 40°15' E 004°31'0 3.7 23.6
2014-Oct-18 06:23N 40°15' E 004°31'0 2.2 23.6
2014-Oct-18 06:19N 40°15' E 004°31'0 0.0 23.6
2014-Oct-18 06:01N 40°15' E 004°31'0 2.2 23.6
2014-Oct-18 05:58N 40°15' E 004°31'0 0.0 23.6
2014-Oct-18 05:56N 40°15' E 004°31'0 0.4 23.6
2014-Oct-18 04:51N 40°15' E 004°31'0 0.0 23.6
2014-Oct-18 04:46N 40°15' E 004°31'0 0.1 23.6
2014-Oct-18 02:58N 40°15' E 004°31'0 0.0
2014-Oct-18 02:44N 40°15' E 004°31'0 2.7 23.6
2014-Oct-18 02:40N 40°15' E 004°31'0 0.2 23.6
2014-Oct-18 01:03N 40°15' E 004°31'0 0.0 23.6
2014-Oct-18 00:58N 40°15' E 004°31'0 0.2 23.6
2014-Oct-17 23:03N 40°14' E 004°32'0 0.0 23.6
2014-Oct-17 21:24N 40°14' E 004°32'0 2.9 23.6
2014-Oct-17 21:19N 40°14' E 004°32'0 0.0 23.6
2014-Oct-17 20:38N 40°14' E 004°32'0 0.0 23.7
2014-Oct-17 20:26N 40°14' E 004°32'0 0.0 23.6
2014-Oct-17 20:15N 40°14' E 004°32'0 0.0 23.7
2014-Oct-17 19:41N 40°14' E 004°32'0 3.9 23.6
2014-Oct-17 19:36N 40°14' E 004°31'0 0.0 23.6
2014-Oct-17 18:57N 40°14' E 004°31'0 0.0 23.7
2014-Oct-17 18:34N 40°14' E 004°31'1 1.7 23.7
2014-Oct-17 17:45N 40°14' E 004°33'1 1.5 23.7
2014-Oct-17 16:52N 40°13' E 004°32'0 0.0
2014-Oct-17 16:25N 40°13' E 004°32'0 1.2 23.8
2014-Oct-17 16:06N 40°13' E 004°32'0 0.2 23.8
2014-Oct-17 14:43N 40°13' E 004°32'0 4.5 23.8
2014-Oct-17 14:38N 40°13' E 004°33'0 1.7 23.8
2014-Oct-17 14:22N 40°13' E 004°33'1 0.3 23.8
2014-Oct-17 11:37N 40°13' E 004°34'0 0.0 23.7
2014-Oct-17 10:58N 40°13' E 004°34'0 0.8 23.7
2014-Oct-17 10:51N 40°13' E 004°34'0 0.3 23.7
2014-Oct-17 10:02N 40°13' E 004°34'0 0.1 23.6
2014-Oct-17 09:09N 40°13' E 004°34'0 0.0 23.6
2014-Oct-17 08:23N 40°13' E 004°34'0 1.1 23.6
2014-Oct-17 08:19N 40°13' E 004°34'0 7.7 23.6
2014-Oct-17 08:16N 40°13' E 004°34'1 0.4 23.6
2014-Oct-17 06:32N 40°13' E 004°35'0 0.0 23.6
2014-Oct-17 06:16N 40°13' E 004°35'0 0.0 23.6
2014-Oct-17 05:00N 40°13' E 004°35'0 4.2 23.6
2014-Oct-17 04:56N 40°13' E 004°34'0 0.0 23.6
2014-Oct-17 04:44N 40°13' E 004°34'0 0.0 23.6
2014-Oct-17 04:40N 40°13' E 004°34'1 3.6 23.6
2014-Oct-17 04:28N 40°13' E 004°33'0 0.0 23.6
2014-Oct-17 03:14N 40°13' E 004°33'0 0.0 23.6
2014-Oct-17 03:05N 40°13' E 004°33'0 1.6 23.6
2014-Oct-17 02:54N 40°14' E 004°34'0 5.4 23.6
2014-Oct-17 02:49N 40°13' E 004°33'0 0.0 23.6
2014-Oct-17 01:14N 40°13' E 004°33'0 0.0 23.6
2014-Oct-17 01:10N 40°13' E 004°33'0 0.2 23.6
2014-Oct-16 22:31N 40°13' E 004°34'1 0.8 23.6
2014-Oct-16 21:38N 40°13' E 004°33'0 0.0 23.6
2014-Oct-16 20:58N 40°13' E 004°33'0 0.5 23.6
2014-Oct-16 20:49N 40°13' E 004°33'0 0.0 23.6
2014-Oct-16 20:43N 40°13' E 004°33'0 0.0
2014-Oct-16 20:03N 40°13' E 004°33'0 4.2 23.7
2014-Oct-16 19:57N 40°13' E 004°34'0 0.3 23.7
2014-Oct-16 19:12N 40°13' E 004°34'0 0.0 23.7
2014-Oct-16 19:04N 40°13' E 004°34'0 0.0 23.7
2014-Oct-16 18:06N 40°13' E 004°34'0 0.1 23.7
2014-Oct-16 14:54N 40°13' E 004°34'0 6.3 23.7
2014-Oct-16 14:50N 40°13' E 004°34'0 0.2 23.7
2014-Oct-16 12:52N 40°13' E 004°34'0 0.5 23.7
2014-Oct-16 12:46N 40°13' E 004°35'0 0.0 23.7
2014-Oct-16 11:57N 40°13' E 004°35'2 2.6 23.7
2014-Oct-16 11:13N 40°13' E 004°32'0 0.0 23.7
2014-Oct-16 11:09N 40°13' E 004°32'0 0.0 23.7
2014-Oct-16 09:32N 40°13' E 004°32'215.0 23.7
2014-Oct-16 09:25N 40°13' E 004°34'0 0.1 23.7
2014-Oct-16 05:16N 40°13' E 004°34'0 0.7 23.7
2014-Oct-16 05:07N 40°12' E 004°34'0 0.0 23.7
2014-Oct-16 05:00N 40°12' E 004°34'0 0.1 23.7
2014-Oct-16 03:07N 40°13' E 004°34'1 0.2 23.7
2014-Oct-15 22:07N 40°12' E 004°35'0 0.2 23.7
2014-Oct-15 21:15N 40°12' E 004°35'0 0.2 23.8
2014-Oct-15 20:26N 40°12' E 004°35'1 6.8 23.8
2014-Oct-15 20:15N 40°13' E 004°36'0 0.0 23.8
2014-Oct-15 19:31N 40°13' E 004°36'1 0.4 23.8
2014-Oct-15 16:56N 40°12' E 004°35'1 0.9 23.9
2014-Oct-15 16:19N 40°12' E 004°36'1 0.5 23.9
2014-Oct-15 15:13N 40°12' E 004°35'0 2.6 23.9
2014-Oct-15 15:08N 40°12' E 004°35'0 0.7 23.9
2014-Oct-15 14:41N 40°12' E 004°35'0 0.0 23.9
2014-Oct-15 13:24N 40°12' E 004°35'0 0.0 23.9
2014-Oct-15 13:02N 40°12' E 004°35'0 0.0 23.9
2014-Oct-15 12:57N 40°12' E 004°35'0 0.1 23.9
2014-Oct-15 10:43N 40°12' E 004°36'0 2.7 23.8
2014-Oct-15 10:39N 40°12' E 004°36'110.8 23.8
2014-Oct-15 10:36N 40°12' E 004°36'0 0.0 23.8
2014-Oct-15 09:57N 40°12' E 004°36'0 1.8 23.8
2014-Oct-15 09:52N 40°12' E 004°36'0 0.2 23.8
2014-Oct-15 09:00N 40°12' E 004°36'2 1.0 23.7
2014-Oct-15 07:06N 40°12' E 004°38'0 0.0 23.8
2014-Oct-15 06:57N 40°12' E 004°38'0 0.4 23.8
2014-Oct-15 05:48N 40°12' E 004°38'1 3.9 23.8
2014-Oct-15 05:30N 40°11' E 004°36'1 6.4 23.8
2014-Oct-15 05:18N 40°11' E 004°38'0 0.0 23.8
2014-Oct-15 04:04N 40°11' E 004°38'0 0.0 23.8
2014-Oct-15 03:41N 40°11' E 004°38'114.9 23.8
2014-Oct-15 03:37N 40°11' E 004°37'0 0.0 23.8
2014-Oct-15 03:16N 40°11' E 004°37'0 1.6 23.8
2014-Oct-15 03:12N 40°11' E 004°37'1 0.6 23.8
2014-Oct-15 01:33N 40°11' E 004°38'0 0.0 23.9
2014-Oct-14 22:26N 40°11' E 004°38'0 0.0 23.9
2014-Oct-14 21:39N 40°11' E 004°38'0 1.4 23.9
2014-Oct-14 21:31N 40°11' E 004°38'0 0.0 23.9
2014-Oct-14 20:44N 40°11' E 004°38'0 0.0 23.9
2014-Oct-14 20:37N 40°11' E 004°38'1 0.4 23.9
2014-Oct-14 19:01N 40°12' E 004°39'1 0.4 23.9
2014-Oct-14 17:17N 40°11' E 004°39'246.2 23.9
2014-Oct-14 17:15N 40°12' E 004°40'2 0.9 23.9
2014-Oct-14 15:38N 40°11' E 004°38'0 0.3 23.9
2014-Oct-14 15:17N 40°11' E 004°38'   23.9

Dump ship's entire track history